Disclaimer

Please do not use the information listed here in-flight or in-navigation, as they are not provided to us by the airports but are provided by volunteers, so they might be outdated.

Search


Regions


Airport information page

Radio informations:
Tower (TWR) - 118.65 MHz

Airport informations:
Latitude: 37° 13' 24.01" N
Longitude: 040° 37' 54.00" E
Elevation: 1729 feet - 527 meters
Operating hours: Remarks
Operating agency: Civil government, landing fees and diplomatic clearance may be required
Timezone: UTC+2(+3DT) - Dates notified by NOTAM
Fuel: N/A

Runway information:
03/21 - 8204 x 118 feet< - >2501 x 36 meters

Recent METARs:
LTCR 180550Z 31003KT 240V340 CAVOK 12/06 Q1023
LTCR 180650Z VRB02KT CAVOK 13/07 Q1023
LTCR 180650Z VRB02KT CAVOK 13/07 Q1023

Airport on the map: